EVA101 RJFF-RCSS
Flight info
| Callsign | EVA101 |
|---|---|
| Flight time | N/A |
| Altitude | 34000 |
| Route | SGE OLE Y40 FUE Z40 IGMON A1 APU APU1F |
| Aircraft | A320/M-SDE3FGHIRWY/LB1 |
Departure
| Time | 2026-04-27 07:35 |
|---|---|
| Airport | Fukuoka Airport (RJFF) |
Arrival
| Time | N/A |
|---|---|
| Airport | Taipei Songshan International Airport (RCSS) |
| Time | Latitude | Longitude | Altitude | Speed | Heading |
|---|---|---|---|---|---|
| 2026-04-27 07:13 | 33.58626 | 130.44455 | 32 ft | 0 kts | 241° |
| 2026-04-27 07:22 | 33.58626 | 130.44456 | 32 ft | 0 kts | 241° |
| 2026-04-27 07:24 | 33.58627 | 130.44456 | 32 ft | 1 kts | 241° |
| 2026-04-27 07:24 | 33.58639 | 130.44482 | 32 ft | 4 kts | 241° |
| 2026-04-27 07:24 | 33.58652 | 130.44510 | 33 ft | 4 kts | 240° |
| 2026-04-27 07:25 | 33.58665 | 130.44538 | 31 ft | 4 kts | 239° |
| 2026-04-27 07:25 | 33.58679 | 130.44566 | 34 ft | 4 kts | 236° |
| 2026-04-27 07:25 | 33.58696 | 130.44591 | 35 ft | 4 kts | 218° |
| 2026-04-27 07:25 | 33.58714 | 130.44601 | 34 ft | 2 kts | 153° |
| 2026-04-27 07:26 | 33.58715 | 130.44600 | 34 ft | 3 kts | 151° |
| 2026-04-27 07:28 | 33.58699 | 130.44611 | 33 ft | 7 kts | 150° |
| 2026-04-27 07:28 | 33.58619 | 130.44665 | 37 ft | 16 kts | 150° |
| 2026-04-27 07:28 | 33.58517 | 130.44733 | 37 ft | 18 kts | 151° |
| 2026-04-27 07:29 | 33.58409 | 130.44804 | 39 ft | 18 kts | 151° |
| 2026-04-27 07:29 | 33.58296 | 130.44879 | 36 ft | 20 kts | 150° |
| 2026-04-27 07:29 | 33.58170 | 130.44964 | 36 ft | 21 kts | 150° |
| 2026-04-27 07:29 | 33.58035 | 130.45055 | 36 ft | 24 kts | 150° |
| 2026-04-27 07:30 | 33.57896 | 130.45149 | 38 ft | 21 kts | 150° |
| 2026-04-27 07:30 | 33.57770 | 130.45234 | 39 ft | 22 kts | 150° |
| 2026-04-27 07:30 | 33.57637 | 130.45323 | 41 ft | 22 kts | 150° |
| 2026-04-27 07:30 | 33.57511 | 130.45409 | 42 ft | 21 kts | 150° |
| 2026-04-27 07:31 | 33.57411 | 130.45479 | 40 ft | 14 kts | 142° |
| 2026-04-27 07:31 | 33.57393 | 130.45550 | 41 ft | 8 kts | 78° |
| 2026-04-27 07:31 | 33.57413 | 130.45610 | 43 ft | 7 kts | 59° |
| 2026-04-27 07:31 | 33.57434 | 130.45653 | 43 ft | 5 kts | 61° |
| 2026-04-27 07:32 | 33.57452 | 130.45691 | 45 ft | 6 kts | 60° |
| 2026-04-27 07:32 | 33.57464 | 130.45720 | 45 ft | 0 kts | 61° |
| 2026-04-27 07:34 | 33.57475 | 130.45744 | 43 ft | 6 kts | 60° |
| 2026-04-27 07:34 | 33.57513 | 130.45780 | 43 ft | 8 kts | 23° |
| 2026-04-27 07:34 | 33.57569 | 130.45765 | 44 ft | 10 kts | 329° |
| 2026-04-27 07:34 | 33.57669 | 130.45698 | 42 ft | 40 kts | 330° |
| 2026-04-27 07:35 | 33.58126 | 130.45384 | 37 ft | 108 kts | 330° |
| 2026-04-27 07:35 | 33.58945 | 130.44822 | 49 ft | 159 kts | 329° |
| 2026-04-27 07:35 | 33.59943 | 130.44132 | 514 ft | 175 kts | 328° |
| 2026-04-27 07:35 | 33.61079 | 130.43374 | 979 ft | 198 kts | 330° |
| 2026-04-27 07:36 | 33.62354 | 130.42522 | 1298 ft | 223 kts | 328° |
| 2026-04-27 07:36 | 33.63759 | 130.41528 | 1741 ft | 244 kts | 328° |
| 2026-04-27 07:36 | 33.65243 | 130.40464 | 2474 ft | 252 kts | 326° |
| 2026-04-27 07:36 | 33.66752 | 130.39427 | 3289 ft | 258 kts | 333° |
| 2026-04-27 07:37 | 33.68539 | 130.38950 | 3998 ft | 271 kts | 358° |
| 2026-04-27 07:37 | 33.70406 | 130.39413 | 4787 ft | 281 kts | 23° |
| 2026-04-27 07:37 | 33.71994 | 130.40780 | 5597 ft | 285 kts | 48° |
| 2026-04-27 07:37 | 33.72991 | 130.42831 | 6404 ft | 287 kts | 73° |
| 2026-04-27 07:38 | 33.73213 | 130.45202 | 7141 ft | 289 kts | 98° |
| 2026-04-27 07:38 | 33.72594 | 130.47491 | 7816 ft | 292 kts | 123° |
| 2026-04-27 07:38 | 33.71214 | 130.49267 | 8494 ft | 294 kts | 149° |
| 2026-04-27 07:38 | 33.69336 | 130.50194 | 9211 ft | 294 kts | 170° |
| 2026-04-27 07:39 | 33.67320 | 130.50708 | 9916 ft | 299 kts | 171° |
| 2026-04-27 07:39 | 33.65268 | 130.51347 | 10314 ft | 317 kts | 159° |
| 2026-04-27 07:39 | 33.63221 | 130.52579 | 10466 ft | 341 kts | 155° |
| 2026-04-27 07:39 | 33.61074 | 130.53910 | 10872 ft | 352 kts | 155° |
| 2026-04-27 07:40 | 33.58859 | 130.55196 | 11484 ft | 355 kts | 163° |
| 2026-04-27 07:40 | 33.56451 | 130.55834 | 12135 ft | 355 kts | 175° |
| 2026-04-27 07:40 | 33.53998 | 130.56261 | 12824 ft | 358 kts | 175° |
| 2026-04-27 07:40 | 33.51525 | 130.56681 | 13497 ft | 360 kts | 175° |
| 2026-04-27 07:41 | 33.49030 | 130.57097 | 14104 ft | 364 kts | 176° |
| 2026-04-27 07:41 | 33.46515 | 130.57516 | 14642 ft | 367 kts | 176° |
| 2026-04-27 07:41 | 33.43959 | 130.57941 | 15162 ft | 372 kts | 176° |
| 2026-04-27 07:41 | 33.41384 | 130.58360 | 15685 ft | 376 kts | 179° |
| 2026-04-27 07:42 | 33.38785 | 130.58373 | 16177 ft | 372 kts | 192° |
| 2026-04-27 07:42 | 33.36278 | 130.57702 | 16699 ft | 367 kts | 206° |
| 2026-04-27 07:42 | 33.33992 | 130.56413 | 17227 ft | 361 kts | 218° |
| 2026-04-27 07:42 | 33.32043 | 130.54614 | 17789 ft | 356 kts | 231° |
| 2026-04-27 07:43 | 33.30432 | 130.52403 | 18367 ft | 353 kts | 237° |
| 2026-04-27 07:43 | 33.28895 | 130.50107 | 18921 ft | 354 kts | 237° |
| 2026-04-27 07:43 | 33.27352 | 130.47809 | 19501 ft | 355 kts | 237° |
| 2026-04-27 07:43 | 33.25786 | 130.45479 | 20113 ft | 356 kts | 238° |
| 2026-04-27 07:44 | 33.24255 | 130.43204 | 20700 ft | 356 kts | 238° |
| 2026-04-27 07:44 | 33.22696 | 130.40892 | 21272 ft | 357 kts | 238° |
| 2026-04-27 07:44 | 33.21134 | 130.38577 | 21809 ft | 358 kts | 238° |
| 2026-04-27 07:44 | 33.19569 | 130.36258 | 22354 ft | 359 kts | 238° |
| 2026-04-27 07:45 | 33.17997 | 130.33928 | 22893 ft | 360 kts | 238° |
| 2026-04-27 07:45 | 33.16424 | 130.31598 | 23409 ft | 362 kts | 238° |
| 2026-04-27 07:45 | 33.14842 | 130.29260 | 23822 ft | 363 kts | 238° |
| 2026-04-27 07:45 | 33.13272 | 130.26899 | 24223 ft | 364 kts | 239° |
| 2026-04-27 07:46 | 33.11720 | 130.24510 | 24619 ft | 365 kts | 239° |
| 2026-04-27 07:46 | 33.10177 | 130.22105 | 25010 ft | 366 kts | 239° |
| 2026-04-27 07:46 | 33.08629 | 130.19689 | 25375 ft | 368 kts | 239° |
| 2026-04-27 07:46 | 33.07069 | 130.17255 | 25718 ft | 370 kts | 239° |
| 2026-04-27 07:47 | 33.05495 | 130.14809 | 26068 ft | 373 kts | 239° |
| 2026-04-27 07:47 | 33.03908 | 130.12357 | 26446 ft | 375 kts | 239° |
| 2026-04-27 07:47 | 33.02307 | 130.09891 | 26786 ft | 377 kts | 239° |
| 2026-04-27 07:47 | 33.00696 | 130.07414 | 27147 ft | 379 kts | 239° |
| 2026-04-27 07:48 | 32.99080 | 130.04931 | 27514 ft | 381 kts | 240° |
| 2026-04-27 07:48 | 32.97447 | 130.02422 | 27889 ft | 383 kts | 240° |
| 2026-04-27 07:48 | 32.95810 | 129.99913 | 28226 ft | 384 kts | 239° |
| 2026-04-27 07:48 | 32.94165 | 129.97394 | 28566 ft | 387 kts | 239° |
| 2026-04-27 07:49 | 32.92514 | 129.94863 | 28897 ft | 388 kts | 240° |
| 2026-04-27 07:49 | 32.91051 | 129.92195 | 29212 ft | 382 kts | 249° |
| 2026-04-27 07:49 | 32.90020 | 129.89297 | 29525 ft | 378 kts | 257° |
| 2026-04-27 07:49 | 32.89353 | 129.86289 | 29832 ft | 377 kts | 260° |
| 2026-04-27 07:50 | 32.88715 | 129.83252 | 30125 ft | 379 kts | 260° |
| 2026-04-27 07:50 | 32.88065 | 129.80200 | 30404 ft | 380 kts | 260° |
| 2026-04-27 07:50 | 32.87410 | 129.77153 | 30691 ft | 381 kts | 260° |
| 2026-04-27 07:50 | 32.86750 | 129.74099 | 30963 ft | 381 kts | 260° |
| 2026-04-27 07:51 | 32.86090 | 129.71039 | 31175 ft | 382 kts | 259° |
| 2026-04-27 07:51 | 32.85429 | 129.67971 | 31392 ft | 384 kts | 259° |
| 2026-04-27 07:51 | 32.84768 | 129.64889 | 31667 ft | 384 kts | 259° |
| 2026-04-27 07:51 | 32.84110 | 129.61832 | 32000 ft | 382 kts | 259° |
| 2026-04-27 07:52 | 32.83453 | 129.58778 | 32329 ft | 381 kts | 259° |
| 2026-04-27 07:52 | 32.82800 | 129.55739 | 32701 ft | 379 kts | 259° |
| 2026-04-27 07:52 | 32.82153 | 129.52715 | 33054 ft | 377 kts | 259° |
| 2026-04-27 07:52 | 32.81509 | 129.49704 | 33405 ft | 375 kts | 259° |
| 2026-04-27 07:53 | 32.80866 | 129.46709 | 33750 ft | 373 kts | 259° |
| 2026-04-27 07:53 | 32.80221 | 129.43720 | 33965 ft | 372 kts | 259° |
| 2026-04-27 07:53 | 32.79580 | 129.40767 | 34001 ft | 367 kts | 259° |
| 2026-04-27 07:54 | 32.78319 | 129.34938 | 34015 ft | 364 kts | 259° |
| 2026-04-27 07:54 | 32.77068 | 129.29148 | 33998 ft | 364 kts | 259° |
| 2026-04-27 07:55 | 32.75801 | 129.23337 | 33998 ft | 363 kts | 259° |
| 2026-04-27 07:55 | 32.74531 | 129.17530 | 33997 ft | 363 kts | 259° |
| 2026-04-27 07:56 | 32.73290 | 129.11841 | 34006 ft | 364 kts | 259° |
| 2026-04-27 07:56 | 32.71998 | 129.05955 | 33988 ft | 364 kts | 259° |
| 2026-04-27 07:57 | 32.70718 | 129.00135 | 33941 ft | 365 kts | 258° |
| 2026-04-27 07:57 | 32.69430 | 128.94297 | 33944 ft | 367 kts | 258° |
| 2026-04-27 07:58 | 32.68131 | 128.88421 | 33957 ft | 369 kts | 258° |
| 2026-04-27 07:58 | 32.66217 | 128.82749 | 33965 ft | 379 kts | 242° |
| 2026-04-27 07:59 | 32.62518 | 128.78133 | 33964 ft | 392 kts | 229° |
| 2026-04-27 07:59 | 32.56358 | 128.71735 | 33953 ft | 394 kts | 228° |
| 2026-04-27 08:00 | 32.52920 | 128.68165 | 33958 ft | 395 kts | 228° |
| 2026-04-27 08:00 | 32.48104 | 128.63162 | 33982 ft | 396 kts | 229° |
| 2026-04-27 08:01 | 32.43955 | 128.58853 | 33965 ft | 397 kts | 228° |
| 2026-04-27 08:01 | 32.39791 | 128.54540 | 33980 ft | 398 kts | 228° |
| 2026-04-27 08:02 | 32.35610 | 128.50224 | 33986 ft | 400 kts | 227° |
| 2026-04-27 08:02 | 32.31406 | 128.45893 | 33996 ft | 401 kts | 227° |
| 2026-04-27 08:03 | 32.27194 | 128.41544 | 33999 ft | 402 kts | 228° |
| 2026-04-27 08:03 | 32.22987 | 128.37202 | 34007 ft | 402 kts | 227° |
| 2026-04-27 08:04 | 32.19478 | 128.33584 | 34014 ft | 402 kts | 227° |
| 2026-04-27 08:04 | 32.15623 | 128.29628 | 34017 ft | 403 kts | 227° |
| 2026-04-27 08:05 | 32.11412 | 128.25313 | 34008 ft | 403 kts | 227° |
| 2026-04-27 08:05 | 32.06465 | 128.20239 | 34019 ft | 403 kts | 227° |
| 2026-04-27 08:06 | 32.02236 | 128.15910 | 34026 ft | 403 kts | 227° |
| 2026-04-27 08:06 | 31.98714 | 128.12309 | 34025 ft | 403 kts | 227° |